Time;durP1;ratioP1;P1;durP2;ratioP2;P2;SDS_P1;SDS_P2;PMS_P1;PMS_P2;Temp;Humidity;BMP_temperature;BMP_pressure;BME280_temperature;BME280_humidity;BME280_pressure;Samples;Min_cycle;Max_cycle;Signal;HPM_P1;HPM_P2
2021/05/15 00:00:21;;;;;;;35.00;26.73;;;11.20;91.60;;;;;;5015344;28;20224;-79
2021/05/15 00:02:46;;;;;;;40.67;29.83;;;11.20;92.30;;;;;;5014326;28;20197;-78
2021/05/15 00:05:12;;;;;;;37.97;28.03;;;11.10;93.40;;;;;;5015742;28;20174;-78
2021/05/15 00:07:38;;;;;;;38.43;28.77;;;11.10;94.40;;;;;;5014167;28;20228;-80
2021/05/15 00:10:05;;;;;;;37.57;28.13;;;11.20;94.30;;;;;;5015543;28;20611;-78
2021/05/15 00:12:32;;;;;;;38.10;28.00;;;11.30;92.70;;;;;;5015364;28;20174;-79
2021/05/15 00:14:58;;;;;;;37.57;28.60;;;11.30;91.40;;;;;;5014893;28;20248;-79
2021/05/15 00:17:23;;;;;;;35.57;27.00;;;11.30;91.70;;;;;;5015263;28;20210;-79
2021/05/15 00:19:49;;;;;;;36.73;27.37;;;11.30;92.00;;;;;;5014909;28;20182;-80
2021/05/15 00:22:15;;;;;;;29.93;23.30;;;11.50;90.90;;;;;;5015237;28;20177;-79
2021/05/15 00:24:41;;;;;;;31.37;23.23;;;11.50;87.50;;;;;;5014994;28;20220;-78
2021/05/15 00:27:07;;;;;;;24.53;19.67;;;11.60;84.30;;;;;;5014961;28;20218;-78
2021/05/15 00:29:32;;;;;;;27.23;22.13;;;11.60;78.90;;;;;;5014855;28;20221;-79
2021/05/15 00:31:58;;;;;;;32.30;24.10;;;11.60;74.10;;;;;;5015141;28;20684;-79
2021/05/15 00:34:24;;;;;;;27.20;21.87;;;11.80;73.00;;;;;;5015082;28;20537;-81
2021/05/15 00:36:50;;;;;;;27.30;21.07;;;11.70;73.20;;;;;;5015177;28;20249;-79
2021/05/15 00:39:17;;;;;;;28.00;20.67;;;11.70;72.90;;;;;;5013616;28;20178;-78
2021/05/15 00:41:43;;;;;;;26.87;20.70;;;11.80;71.50;;;;;;5013829;28;20704;-79
2021/05/15 00:46:50;;;;;;;26.73;19.40;;;11.50;72.00;;;;;;5015244;28;20240;-79
2021/05/15 00:49:16;;;;;;;33.13;23.80;;;11.40;75.40;;;;;;5014738;28;20166;-79
2021/05/15 00:51:42;;;;;;;42.67;28.50;;;11.40;76.60;;;;;;5014815;28;20189;-79
2021/05/15 00:54:11;;;;;;;34.57;28.13;;;11.60;77.80;;;;;;5014697;28;20677;-79
2021/05/15 00:56:37;;;;;;;28.90;24.57;;;11.70;73.70;;;;;;5013268;28;20532;-79
2021/05/15 00:59:03;;;;;;;31.80;23.40;;;11.70;72.10;;;;;;5014525;28;20233;-79
2021/05/15 01:01:30;;;;;;;32.63;24.70;;;11.60;71.90;;;;;;5014575;28;20185;-79
2021/05/15 01:03:55;;;;;;;29.77;22.10;;;11.70;70.70;;;;;;5013118;28;20190;-77
2021/05/15 01:06:21;;;;;;;22.93;16.47;;;11.60;66.20;;;;;;5014374;28;20224;-78
2021/05/15 01:08:47;;;;;;;22.10;16.70;;;11.50;59.70;;;;;;5014287;28;20186;-78
2021/05/15 01:11:14;;;;;;;24.73;17.00;;;11.50;60.60;;;;;;5013973;28;20175;-78
2021/05/15 01:13:40;;;;;;;22.13;15.97;;;11.50;58.50;;;;;;5014500;28;20186;-79
2021/05/15 01:16:06;;;;;;;24.87;17.47;;;11.50;57.80;;;;;;5014183;28;20174;-79
2021/05/15 01:18:32;;;;;;;28.17;19.50;;;11.40;61.50;;;;;;5014266;28;20178;-80
2021/05/15 01:20:59;;;;;;;25.00;17.80;;;11.40;61.00;;;;;;5014115;28;20177;-78
2021/05/15 01:23:25;;;;;;;24.10;16.33;;;11.50;58.40;;;;;;5012597;28;20531;-79
2021/05/15 01:25:50;;;;;;;19.73;15.07;;;11.50;58.20;;;;;;5013426;28;20220;-80
2021/05/15 01:28:16;;;;;;;27.33;18.03;;;11.60;55.20;;;;;;5012732;28;20272;-78
2021/05/15 01:30:42;;;;;;;33.20;22.93;;;11.60;51.10;;;;;;5013261;28;20257;-78
2021/05/15 01:33:08;;;;;;;29.00;20.83;;;11.60;51.00;;;;;;5014112;28;20250;-79
2021/05/15 01:35:34;;;;;;;29.20;20.13;;;11.90;43.80;;;;;;5013954;28;20643;-78
2021/05/15 01:37:59;;;;;;;25.60;18.53;;;12.00;32.50;;;;;;5012781;28;20178;-78
2021/05/15 01:40:26;;;;;;;25.37;19.17;;;12.10;26.90;;;;;;5013579;28;20177;-79
2021/05/15 01:42:51;;;;;;;24.23;17.90;;;12.10;25.00;;;;;;5013982;28;20201;-79
2021/05/15 01:45:17;;;;;;;24.53;18.33;;;12.10;22.50;;;;;;5013663;28;20209;-79
2021/05/15 01:47:42;;;;;;;21.83;18.03;;;12.10;20.30;;;;;;5013440;28;20260;-78
2021/05/15 01:50:13;;;;;;;23.53;17.80;;;12.10;20.10;;;;;;5012493;28;20226;-79
2021/05/15 01:52:38;;;;;;;22.53;18.83;;;12.10;21.10;;;;;;5013762;28;20179;-78
2021/05/15 01:55:11;;;;;;;27.07;19.77;;;12.10;20.90;;;;;;5013099;28;20228;-79
2021/05/15 01:57:37;;;;;;;24.67;20.60;;;12.20;20.70;;;;;;5013847;28;20205;-77
2021/05/15 02:00:04;;;;;;;30.73;21.93;;;12.30;19.20;;;;;;5013442;28;20213;-79
2021/05/15 02:02:30;;;;;;;28.87;22.30;;;12.30;18.10;;;;;;5013679;28;20198;-77
2021/05/15 02:04:55;;;;;;;30.63;22.50;;;12.30;18.80;;;;;;5013703;28;20225;-78
2021/05/15 02:07:21;;;;;;;29.83;22.30;;;12.40;14.70;;;;;;5013372;28;20214;-78
2021/05/15 02:09:47;;;;;;;43.27;29.83;;;12.50;11.00;;;;;;5013314;28;20235;-78
2021/05/15 02:12:12;;;;;;;42.20;31.23;;;12.50;7.30;;;;;;5013380;28;20170;-77
2021/05/15 02:14:38;;;;;;;46.07;32.47;;;12.60;1.70;;;;;;5013537;28;20174;-78
2021/05/15 02:17:04;;;;;;;43.80;32.03;;;12.70;1.00;;;;;;5013216;28;20177;-77
2021/05/15 02:19:29;;;;;;;43.23;33.27;;;12.60;1.00;;;;;;5013490;28;20663;-79
2021/05/15 02:21:55;;;;;;;44.33;33.27;;;12.60;1.00;;;;;;5013263;28;20193;-79
2021/05/15 02:24:20;;;;;;;44.17;33.70;;;12.60;1.00;;;;;;5012828;28;20174;-79
2021/05/15 02:26:46;;;;;;;44.20;32.47;;;12.60;1.00;;;;;;5011486;28;20241;-80
2021/05/15 02:29:12;;;;;;;42.37;32.97;;;12.60;3.50;;;;;;5013220;28;20178;-78
2021/05/15 02:31:37;;;;;;;44.13;32.37;;;12.50;7.20;;;;;;5013149;28;20182;-78
2021/05/15 02:34:03;;;;;;;41.60;31.27;;;12.50;11.50;;;;;;5013343;28;20166;-78
2021/05/15 02:36:29;;;;;;;45.97;32.77;;;12.50;2.20;;;;;;5013032;28;20167;-78
2021/05/15 02:38:55;;;;;;;40.20;31.63;;;12.50;1.50;;;;;;5012840;28;20180;-79
2021/05/15 02:41:20;;;;;;;42.17;32.93;;;12.60;3.10;;;;;;5011788;28;20216;-79
2021/05/15 02:43:46;;;;;;;43.90;31.77;;;12.50;2.40;;;;;;5016612;28;20162;-78
2021/05/15 02:46:12;;;;;;;41.17;31.90;;;12.50;1.30;;;;;;5016887;28;20244;-79
2021/05/15 02:48:37;;;;;;;40.73;32.43;;;12.50;1.00;;;;;;5017254;28;20176;-79
2021/05/15 02:51:03;;;;;;;46.53;34.90;;;12.40;2.40;;;;;;5016977;28;20627;-79
2021/05/15 02:53:28;;;;;;;50.97;39.67;;;12.20;14.20;;;;;;5016792;28;20511;-79
2021/05/15 02:55:54;;;;;;;53.77;38.53;;;12.30;10.40;;;;;;5016904;28;20182;-77
2021/05/15 02:58:20;;;;;;;52.13;38.00;;;12.40;4.10;;;;;;5016797;28;20170;-79
2021/05/15 03:00:45;;;;;;;53.03;40.20;;;12.30;1.00;;;;;;5015528;28;20178;-78
2021/05/15 03:03:11;;;;;;;49.73;39.70;;;12.30;1.00;;;;;;5015393;28;20233;-79
2021/05/15 03:05:37;;;;;;;49.20;37.47;;;12.10;6.20;;;;;;5016767;28;20204;-77
2021/05/15 03:08:03;;;;;;;51.23;37.53;;;12.00;18.00;;;;;;5016421;28;20260;-79
2021/05/15 03:10:29;;;;;;;51.47;38.47;;;11.90;33.50;;;;;;5015453;28;20638;-78
2021/05/15 03:12:55;;;;;;;49.23;37.63;;;12.00;31.30;;;;;;5015676;28;20709;-77
2021/05/15 03:15:22;;;;;;;55.67;39.97;;;12.10;23.70;;;;;;5016509;28;20174;-78
2021/05/15 03:17:48;;;;;;;55.87;39.90;;;12.00;27.50;;;;;;5016531;28;20623;-79
2021/05/15 03:20:16;;;;;;;53.87;39.53;;;11.90;30.60;;;;;;5016530;28;20190;-78
2021/05/15 03:22:42;;;;;;;56.33;39.57;;;11.80;41.00;;;;;;5016012;28;20174;-79
2021/05/15 03:25:08;;;;;;;50.50;39.73;;;11.80;45.20;;;;;;5016151;28;20194;-78
2021/05/15 03:27:34;;;;;;;54.17;41.10;;;11.70;49.40;;;;;;5016127;28;20756;-78
2021/05/15 03:30:00;;;;;;;53.37;39.93;;;11.70;55.20;;;;;;5016481;28;20158;-78
2021/05/15 03:32:26;;;;;;;52.97;39.30;;;11.50;61.00;;;;;;5016040;28;20175;-78
2021/05/15 03:34:51;;;;;;;49.97;38.57;;;11.30;69.10;;;;;;5016360;28;20166;-77
2021/05/15 03:37:17;;;;;;;49.03;37.37;;;11.30;75.70;;;;;;5015811;28;20201;-77
2021/05/15 03:39:44;;;;;;;48.10;37.70;;;11.20;81.10;;;;;;5016540;28;20256;-77
2021/05/15 03:42:10;;;;;;;46.10;36.67;;;11.20;82.80;;;;;;5016510;28;20170;-77
2021/05/15 03:44:35;;;;;;;49.13;38.37;;;11.20;82.90;;;;;;5015003;28;20174;-78
2021/05/15 03:47:01;;;;;;;48.43;37.83;;;11.30;81.80;;;;;;5015774;28;20228;-79
2021/05/15 03:49:26;;;;;;;52.50;39.07;;;11.40;75.10;;;;;;5014627;28;20262;-78
2021/05/15 03:51:52;;;;;;;47.70;37.43;;;11.40;72.10;;;;;;5014280;28;20182;-77
2021/05/15 03:54:18;;;;;;;47.07;37.47;;;11.40;74.90;;;;;;5013714;28;20249;-78
2021/05/15 03:56:43;;;;;;;47.07;37.60;;;11.30;77.10;;;;;;5015825;28;20206;-78
2021/05/15 03:59:09;;;;;;;46.03;36.10;;;11.40;77.90;;;;;;5014155;28;20174;-77
2021/05/15 04:01:34;;;;;;;48.00;37.50;;;11.40;77.10;;;;;;5016157;28;20166;-79
2021/05/15 04:04:00;;;;;;;46.47;38.13;;;11.30;77.60;;;;;;5014358;28;20273;-78
2021/05/15 04:06:26;;;;;;;45.50;36.00;;;11.30;79.30;;;;;;5015092;28;20194;-79
2021/05/15 04:08:51;;;;;;;47.17;37.47;;;11.50;80.30;;;;;;5014592;28;20191;-78
2021/05/15 04:11:17;;;;;;;48.17;37.47;;;11.40;80.30;;;;;;5015661;28;20170;-78
2021/05/15 04:13:56;;;;;;;46.77;38.10;;;11.40;79.40;;;;;;5015218;28;20209;-79
2021/05/15 04:18:48;;;;;;;48.37;38.70;;;11.80;69.40;;;;;;5015107;28;20266;-78
2021/05/15 04:21:14;;;;;;;47.47;37.97;;;11.90;61.20;;;;;;5015130;28;20233;-79
2021/05/15 04:23:40;;;;;;;50.17;39.00;;;12.00;50.70;;;;;;5015313;28;20568;-78
2021/05/15 04:26:05;;;;;;;49.70;39.67;;;12.00;43.90;;;;;;5014886;28;20230;-77
2021/05/15 04:28:32;;;;;;;51.63;40.97;;;11.90;48.10;;;;;;5015132;28;20171;-79
2021/05/15 04:30:59;;;;;;;53.10;42.33;;;12.10;50.80;;;;;;5014941;28;20649;-79
2021/05/15 04:33:25;;;;;;;47.67;37.93;;;11.90;46.50;;;;;;5014344;28;20626;-78
2021/05/15 04:35:52;;;;;;;52.00;39.63;;;11.80;50.40;;;;;;5013530;28;20174;-79
2021/05/15 04:38:18;;;;;;;51.50;40.10;;;11.80;54.10;;;;;;5014932;28;20170;-79
2021/05/15 04:40:44;;;;;;;45.73;37.93;;;11.80;52.70;;;;;;5015078;28;20262;-78
2021/05/15 04:43:10;;;;;;;47.27;38.33;;;11.80;56.90;;;;;;5015106;28;20173;-79
2021/05/15 04:45:36;;;;;;;48.70;37.93;;;11.90;54.90;;;;;;5014772;28;20285;-78
2021/05/15 04:48:02;;;;;;;52.37;39.73;;;12.00;48.20;;;;;;5014660;28;20289;-77
2021/05/15 04:50:27;;;;;;;47.00;39.90;;;12.10;45.80;;;;;;5014173;28;20178;-78
2021/05/15 04:52:53;;;;;;;48.80;40.17;;;12.10;47.70;;;;;;5014440;28;20171;-79
2021/05/15 04:55:18;;;;;;;51.73;40.27;;;12.00;46.90;;;;;;5014129;28;20642;-78
2021/05/15 04:57:45;;;;;;;44.70;37.60;;;11.90;51.40;;;;;;5014529;28;20174;-79
2021/05/15 05:00:11;;;;;;;53.00;40.50;;;11.80;54.70;;;;;;5014158;28;20202;-79
2021/05/15 05:02:37;;;;;;;49.40;40.20;;;11.80;55.80;;;;;;5013892;28;20249;-79
2021/05/15 05:05:03;;;;;;;53.47;40.93;;;11.60;62.50;;;;;;5013546;28;20178;-78
2021/05/15 05:07:28;;;;;;;50.57;41.03;;;11.60;67.10;;;;;;5013312;28;20213;-79
2021/05/15 05:09:54;;;;;;;50.63;40.67;;;11.60;68.10;;;;;;5014061;28;20166;-79
2021/05/15 05:12:19;;;;;;;52.67;40.53;;;11.60;69.70;;;;;;5014176;28;20170;-78
2021/05/15 05:14:45;;;;;;;53.33;41.90;;;11.70;68.30;;;;;;5013875;28;20531;-81
2021/05/15 05:17:11;;;;;;;49.77;41.07;;;11.90;64.00;;;;;;5014192;28;20205;-78
2021/05/15 05:19:37;;;;;;;51.80;39.83;;;11.80;62.30;;;;;;5013688;28;20174;-78
2021/05/15 05:22:03;;;;;;;49.07;40.10;;;11.70;65.30;;;;;;5013956;28;20171;-78
2021/05/15 05:24:32;;;;;;;49.93;39.53;;;11.70;68.30;;;;;;5013813;28;20177;-79
2021/05/15 05:27:01;;;;;;;52.37;41.40;;;11.60;71.50;;;;;;5010418;28;20260;-80
2021/05/15 05:29:26;;;;;;;48.23;40.27;;;11.70;72.40;;;;;;5012773;28;20257;-80
2021/05/15 05:31:53;;;;;;;47.07;39.17;;;11.80;72.40;;;;;;5013629;28;20273;-81
2021/05/15 05:34:19;;;;;;;46.43;38.07;;;11.90;69.30;;;;;;5013939;28;20178;-79
2021/05/15 05:36:47;;;;;;;43.30;38.27;;;12.00;67.90;;;;;;5013363;28;20205;-78
2021/05/15 05:39:16;;;;;;;44.63;35.90;;;12.00;63.00;;;;;;5013907;28;20177;-78
2021/05/15 05:41:41;;;;;;;41.00;34.60;;;12.00;59.60;;;;;;5013524;28;20178;-77
2021/05/15 05:44:07;;;;;;;44.40;35.23;;;11.90;58.60;;;;;;5013858;28;20170;-79
2021/05/15 05:46:33;;;;;;;36.37;31.77;;;12.10;59.20;;;;;;5012939;28;20247;-79
2021/05/15 05:48:59;;;;;;;35.87;30.37;;;12.10;53.00;;;;;;5013768;28;20539;-81
2021/05/15 05:51:26;;;;;;;30.97;27.30;;;12.30;45.10;;;;;;5013508;28;20197;-79
2021/05/15 05:53:52;;;;;;;31.87;27.67;;;12.20;39.70;;;;;;5013470;28;20170;-79
2021/05/15 05:56:19;;;;;;;30.70;26.17;;;12.20;33.70;;;;;;5013338;28;20178;-79
2021/05/15 05:58:46;;;;;;;28.63;25.33;;;12.10;33.30;;;;;;5013786;28;20248;-79
2021/05/15 06:01:15;;;;;;;28.33;24.63;;;12.10;33.30;;;;;;5011644;28;20174;-78
2021/05/15 06:03:41;;;;;;;28.37;24.50;;;12.10;33.30;;;;;;5013473;28;20200;-80
2021/05/15 06:06:06;;;;;;;26.93;24.13;;;12.10;30.30;;;;;;5013126;28;20206;-79
2021/05/15 06:08:32;;;;;;;26.40;22.27;;;12.20;26.50;;;;;;5013382;28;20174;-78
2021/05/15 06:10:58;;;;;;;27.07;23.93;;;12.20;18.80;;;;;;5013125;28;20189;-80
2021/05/15 06:13:25;;;;;;;26.83;22.43;;;12.10;18.10;;;;;;5013048;28;20241;-79
2021/05/15 06:15:51;;;;;;;25.73;22.80;;;12.10;18.40;;;;;;5012651;28;20177;-79
2021/05/15 06:18:16;;;;;;;28.07;22.47;;;12.20;11.00;;;;;;5012680;28;20170;-80
2021/05/15 06:20:45;;;;;;;24.03;21.40;;;12.20;14.40;;;;;;5013051;28;20197;-81
2021/05/15 06:23:10;;;;;;;27.77;22.00;;;12.30;15.10;;;;;;5012850;28;20166;-78
2021/05/15 06:25:36;;;;;;;27.13;21.60;;;12.30;15.10;;;;;;5012526;28;20193;-80
2021/05/15 06:28:03;;;;;;;22.53;19.40;;;12.40;13.40;;;;;;5012680;28;20800;-78
2021/05/15 06:30:28;;;;;;;21.47;18.47;;;12.50;6.30;;;;;;5011209;28;20534;-79
2021/05/15 06:32:54;;;;;;;21.03;18.73;;;12.50;1.00;;;;;;5012691;28;20177;-79
2021/05/15 06:35:20;;;;;;;18.97;17.03;;;12.60;1.00;;;;;;5011650;28;20174;-77
2021/05/15 06:37:45;;;;;;;18.40;15.97;;;12.60;1.00;;;;;;5011468;28;20232;-80
2021/05/15 06:40:12;;;;;;;15.43;13.70;;;12.70;1.00;;;;;;5011584;28;20181;-79
2021/05/15 06:42:38;;;;;;;16.27;13.73;;;12.70;1.00;;;;;;5012739;28;20178;-80
2021/05/15 06:45:06;;;;;;;13.23;11.50;;;12.80;1.00;;;;;;5012518;28;20174;-79
2021/05/15 06:47:31;;;;;;;13.00;11.37;;;12.80;1.00;;;;;;5012533;28;20384;-79
2021/05/15 06:49:57;;;;;;;15.17;11.30;;;12.90;1.00;;;;;;5012579;28;20257;-79
2021/05/15 06:52:23;;;;;;;13.60;11.40;;;13.00;1.00;;;;;;5012562;28;20623;-79
2021/05/15 06:54:48;;;;;;;14.53;10.87;;;13.10;1.00;;;;;;5012651;28;20534;-78
2021/05/15 06:57:14;;;;;;;12.87;11.13;;;13.20;1.00;;;;;;5012874;28;20178;-78
2021/05/15 06:59:40;;;;;;;12.73;10.23;;;13.20;1.00;;;;;;5012525;28;20175;-81
2021/05/15 07:02:05;;;;;;;12.93;10.27;;;12.90;1.00;;;;;;5012234;28;20261;-79
2021/05/15 07:04:31;;;;;;;12.23;10.83;;;12.90;1.00;;;;;;5012527;28;20179;-79
2021/05/15 07:06:57;;;;;;;12.70;9.80;;;12.90;1.00;;;;;;5012453;28;20206;-79
2021/05/15 07:09:23;;;;;;;12.87;10.47;;;12.80;1.00;;;;;;5012792;28;20166;-79
2021/05/15 07:11:49;;;;;;;12.80;10.17;;;12.70;1.00;;;;;;5012082;28;20166;-81
2021/05/15 07:14:17;;;;;;;13.00;10.77;;;12.60;1.00;;;;;;5010903;28;20236;-80
2021/05/15 07:16:43;;;;;;;14.73;11.20;;;12.50;1.00;;;;;;5011042;28;20182;-79
2021/05/15 07:19:08;;;;;;;13.20;10.67;;;12.30;1.00;;;;;;5012625;28;20585;-81
2021/05/15 07:21:34;;;;;;;11.90;10.70;;;12.30;1.00;;;;;;5012273;28;20167;-79
2021/05/15 07:24:00;;;;;;;14.47;11.63;;;12.30;1.00;;;;;;5011722;28;20257;-79
2021/05/15 07:26:26;;;;;;;13.93;12.03;;;12.30;5.40;;;;;;5010960;28;20264;-78
2021/05/15 07:28:51;;;;;;;15.43;11.43;;;12.20;7.20;;;;;;5011790;28;20663;-79
2021/05/15 07:31:18;;;;;;;14.43;11.77;;;12.20;2.80;;;;;;5014616;28;20166;-79
2021/05/15 07:33:43;;;;;;;13.30;11.67;;;12.30;11.10;;;;;;5015573;28;20642;-78
2021/05/15 07:36:09;;;;;;;14.17;12.00;;;12.30;9.30;;;;;;5015652;28;20170;-79
2021/05/15 07:38:36;;;;;;;12.63;11.33;;;12.40;5.30;;;;;;5015832;28;20171;-78
2021/05/15 07:41:03;;;;;;;14.83;11.20;;;12.30;6.10;;;;;;5015747;28;20204;-79
2021/05/15 07:43:29;;;;;;;14.10;11.27;;;12.30;7.20;;;;;;5015674;28;20170;-78
2021/05/15 07:45:56;;;;;;;14.10;11.27;;;12.30;8.10;;;;;;5015890;28;20177;-78
2021/05/15 07:48:29;;;;;;;13.97;11.73;;;12.50;7.60;;;;;;5015203;28;20205;-80
2021/05/15 07:50:56;;;;;;;12.80;10.83;;;12.50;4.90;;;;;;5015249;28;20193;-79
2021/05/15 07:53:23;;;;;;;13.07;10.80;;;12.40;1.00;;;;;;5015236;28;20190;-79
2021/05/15 07:55:49;;;;;;;13.17;10.77;;;12.50;7.20;;;;;;5015090;28;20257;-79
2021/05/15 07:58:16;;;;;;;11.27;10.00;;;12.60;6.70;;;;;;5013695;28;20240;-79
2021/05/15 08:00:41;;;;;;;14.00;10.00;;;12.80;5.50;;;;;;5015314;28;20198;-80
2021/05/15 08:03:07;;;;;;;13.73;11.13;;;13.00;1.00;;;;;;5015718;28;20241;-77
2021/05/15 08:05:33;;;;;;;12.60;9.73;;;13.10;1.00;;;;;;5015191;28;20178;-78
2021/05/15 08:08:00;;;;;;;11.83;9.07;;;13.20;1.00;;;;;;5014763;28;20260;-79
2021/05/15 08:10:26;;;;;;;14.13;9.67;;;13.20;1.00;;;;;;5015213;28;20198;-78
2021/05/15 08:12:51;;;;;;;13.60;9.77;;;13.00;1.00;;;;;;5015058;28;20221;-80
2021/05/15 08:15:17;;;;;;;12.83;10.13;;;13.10;1.00;;;;;;5014116;28;20197;-76
2021/05/15 08:17:43;;;;;;;12.50;9.40;;;13.20;1.00;;;;;;5015533;28;20177;-78
2021/05/15 08:20:09;;;;;;;11.17;8.53;;;13.10;1.00;;;;;;5014719;28;20572;-79
2021/05/15 08:22:35;;;;;;;12.60;8.63;;;13.00;1.00;;;;;;5014857;28;20334;-81
2021/05/15 08:25:00;;;;;;;9.90;8.17;;;12.90;1.00;;;;;;5014563;28;20249;-80
2021/05/15 08:27:26;;;;;;;12.03;8.57;;;12.80;1.00;;;;;;5015063;28;20558;-78
2021/05/15 08:29:55;;;;;;;11.30;7.97;;;12.80;1.00;;;;;;5014695;28;20193;-79
2021/05/15 08:32:20;;;;;;;11.70;7.97;;;12.80;1.00;;;;;;5014789;28;20277;-79
2021/05/15 08:34:46;;;;;;;10.80;8.00;;;12.80;1.00;;;;;;5014740;28;20261;-78
2021/05/15 08:37:12;;;;;;;9.97;8.00;;;12.80;1.00;;;;;;5014566;28;20600;-80
2021/05/15 08:39:37;;;;;;;9.47;7.50;;;13.00;1.00;;;;;;5013449;28;20634;-81
2021/05/15 08:42:03;;;;;;;12.13;8.53;;;13.10;1.00;;;;;;5014248;28;20531;-80
2021/05/15 08:44:29;;;;;;;11.10;8.40;;;13.30;1.00;;;;;;5014457;28;20623;-79
2021/05/15 08:46:56;;;;;;;10.03;6.87;;;13.50;1.00;;;;;;5012992;28;20268;-79
2021/05/15 08:49:23;;;;;;;11.20;6.77;;;13.60;1.00;;;;;;5013360;28;20713;-78
2021/05/15 08:51:53;;;;;;;7.43;6.33;;;13.70;1.00;;;;;;5014202;28;20182;-79
2021/05/15 08:54:21;;;;;;;8.87;6.50;;;13.60;1.00;;;;;;5014049;28;20252;-80
2021/05/15 08:56:49;;;;;;;10.27;7.00;;;13.60;1.00;;;;;;5014277;28;20213;-79
2021/05/15 08:59:15;;;;;;;9.27;5.80;;;13.70;1.00;;;;;;5014161;28;20174;-79
2021/05/15 09:01:44;;;;;;;9.73;6.40;;;13.70;1.00;;;;;;5014076;28;20541;-79
2021/05/15 09:04:10;;;;;;;9.43;5.57;;;13.80;1.00;;;;;;5013980;28;20194;-78
2021/05/15 09:06:40;;;;;;;6.97;4.50;;;13.80;1.00;;;;;;5013961;28;20230;-78
2021/05/15 09:09:06;;;;;;;9.50;5.30;;;13.90;1.00;;;;;;5013999;28;20175;-81
2021/05/15 09:11:32;;;;;;;6.43;3.70;;;14.00;1.00;;;;;;5013655;28;20323;-80
2021/05/15 09:13:57;;;;;;;6.60;4.13;;;14.00;99.90;;;;;;5013634;28;20754;-81
2021/05/15 09:16:23;;;;;;;9.30;4.33;;;14.00;99.90;;;;;;5013804;28;20701;-79
2021/05/15 09:18:49;;;;;;;7.47;3.70;;;14.20;99.90;;;;;;5014108;28;20686;-81
2021/05/15 09:21:21;;;;;;;10.50;4.80;;;14.30;99.90;;;;;;5012409;28;20219;-79
2021/05/15 09:23:49;;;;;;;8.03;4.67;;;14.40;99.90;;;;;;5013477;28;20186;-78
2021/05/15 09:26:24;;;;;;;12.00;5.70;;;14.70;57.80;;;;;;5011884;28;20211;-80
2021/05/15 09:28:57;;;;;;;6.70;3.97;;;14.90;1.00;;;;;;5013914;28;20186;-80
2021/05/15 09:31:31;;;;;;;8.53;4.50;;;15.00;99.90;;;;;;5013505;28;20581;-79
2021/05/15 09:34:07;;;;;;;6.50;3.87;;;14.90;99.90;;;;;;5012209;28;20194;-79
2021/05/15 09:36:37;;;;;;;7.63;3.77;;;14.90;99.90;;;;;;5013300;28;20175;-79
2021/05/15 09:39:03;;;;;;;7.50;4.07;;;15.10;99.90;;;;;;5013151;28;20172;-79
2021/05/15 09:41:33;;;;;;;8.50;4.30;;;15.30;99.90;;;;;;5013388;28;20177;-79
2021/05/15 09:43:59;;;;;;;6.93;4.10;;;15.30;99.90;;;;;;5013851;28;20162;-80
2021/05/15 09:46:27;;;;;;;7.10;3.30;;;15.00;99.90;;;;;;5011986;28;20323;-80
2021/05/15 09:48:54;;;;;;;9.07;3.10;;;14.90;1.00;;;;;;5013766;28;20511;-80
2021/05/15 09:51:20;;;;;;;4.97;2.67;;;14.70;1.00;;;;;;5013030;28;20162;-79
2021/05/15 09:53:46;;;;;;;7.40;2.80;;;14.90;1.00;;;;;;5012562;28;20182;-80
2021/05/15 09:56:12;;;;;;;6.43;2.30;;;14.60;1.00;;;;;;5012933;28;20198;-80
2021/05/15 09:58:38;;;;;;;7.40;2.30;;;14.50;99.90;;;;;;5013162;28;20172;-80
2021/05/15 10:01:03;;;;;;;5.73;2.70;;;14.40;1.00;;;;;;5012959;28;20182;-79
2021/05/15 10:03:33;;;;;;;8.13;2.90;;;14.30;1.00;;;;;;5013193;28;20182;-80
2021/05/15 10:06:02;;;;;;;5.70;2.70;;;14.10;74.60;;;;;;5013011;28;20170;-79
2021/05/15 10:08:29;;;;;;;7.30;3.00;;;14.10;99.90;;;;;;5012415;28;20227;-80
2021/05/15 10:10:55;;;;;;;7.47;3.97;;;14.00;99.90;;;;;;5012608;28;20162;-79
2021/05/15 10:13:21;;;;;;;4.93;2.27;;;13.80;1.00;;;;;;5012681;28;20170;-80
2021/05/15 10:15:47;;;;;;;6.70;2.70;;;13.50;1.00;;;;;;5012785;28;20209;-79
2021/05/15 10:18:14;;;;;;;6.80;3.33;;;13.40;1.00;;;;;;5011545;28;20561;-80
2021/05/15 10:20:41;;;;;;;5.80;2.83;;;13.20;1.00;;;;;;5012742;28;20170;-80
2021/05/15 10:23:43;;;;;;;6.40;3.13;;;13.20;1.00;;;;;;5012527;28;20167;-80
2021/05/15 10:26:15;;;;;;;6.60;2.83;;;13.10;1.00;;;;;;5009356;28;20196;-78
2021/05/15 10:28:41;;;;;;;7.10;2.77;;;13.20;1.00;;;;;;5012263;28;20213;-79
2021/05/15 10:31:15;;;;;;;6.70;3.60;;;13.40;1.00;;;;;;5012075;28;20630;-81
2021/05/15 10:33:42;;;;;;;6.23;3.20;;;13.50;1.00;;;;;;5011038;28;20174;-79
2021/05/15 10:36:22;;;;;;;5.70;3.43;;;13.60;1.00;;;;;;5012134;28;20289;-79
2021/05/15 10:38:49;;;;;;;8.97;2.83;;;13.80;1.00;;;;;;5012400;28;20220;-79
2021/05/15 10:41:26;;;;;;;7.93;3.07;;;14.00;1.00;;;;;;5012068;28;20244;-80
2021/05/15 10:43:53;;;;;;;7.40;2.53;;;14.20;1.00;;;;;;5011684;28;20638;-80
2021/05/15 10:46:19;;;;;;;7.73;2.60;;;14.40;1.00;;;;;;5012196;28;20244;-80
2021/05/15 10:49:05;;;;;;;5.30;2.63;;;14.50;1.00;;;;;;5012305;28;20256;-79
2021/05/15 10:51:39;;;;;;;5.50;2.63;;;14.80;99.90;;;;;;5010924;28;20175;-79
2021/05/15 10:54:05;;;;;;;5.07;2.00;;;14.70;99.90;;;;;;5011753;28;20540;-78
2021/05/15 10:56:31;;;;;;;4.93;2.77;;;14.40;99.90;;;;;;5012425;28;20174;-79
2021/05/15 10:59:09;;;;;;;4.37;2.40;;;14.30;99.90;;;;;;5011530;28;20555;-78
2021/05/15 11:01:48;;;;;;;5.00;2.27;;;14.20;99.90;;;;;;5012602;28;20308;-79
2021/05/15 11:04:19;;;;;;;3.17;1.70;;;13.90;99.90;;;;;;5014792;28;20185;-79
2021/05/15 11:07:04;;;;;;;4.93;1.77;;;13.80;99.90;;;;;;5015946;28;20352;-79
2021/05/15 11:09:31;;;;;;;4.33;1.90;;;13.70;99.90;;;;;;5015384;28;20215;-80
2021/05/15 11:12:25;;;;;;;4.50;2.10;;;13.60;99.90;;;;;;5016093;28;20638;-79
2021/05/15 11:14:52;;;;;;;4.83;1.83;;;13.50;1.00;;;;;;5015854;28;20186;-79
2021/05/15 11:17:23;;;;;;;4.00;1.67;;;13.50;1.00;;;;;;5014522;28;20230;-80
2021/05/15 11:19:50;;;;;;;4.00;1.77;;;13.50;1.00;;;;;;5016271;28;20647;-78
2021/05/15 11:22:16;;;;;;;5.23;2.40;;;13.60;1.00;;;;;;5015978;28;20193;-78
2021/05/15 11:24:51;;;;;;;4.50;2.00;;;13.50;1.00;;;;;;5016279;28;20619;-81
2021/05/15 11:27:18;;;;;;;3.27;2.00;;;13.50;1.00;;;;;;5014402;28;20225;-80
2021/05/15 11:29:44;;;;;;;6.07;1.77;;;13.60;1.00;;;;;;5015166;28;20568;-79
2021/05/15 11:32:16;;;;;;;5.30;1.83;;;13.40;1.00;;;;;;5016109;28;20224;-80
2021/05/15 11:34:42;;;;;;;4.77;2.33;;;13.40;1.00;;;;;;5015429;28;20261;-80
2021/05/15 11:37:11;;;;;;;4.20;2.40;;;13.40;1.00;;;;;;5014359;28;20610;-80
2021/05/15 11:39:37;;;;;;;5.30;2.57;;;13.30;1.00;;;;;;5015591;28;20265;-80
2021/05/15 11:42:08;;;;;;;3.77;1.93;;;13.20;1.00;;;;;;5014412;28;20323;-79
2021/05/15 11:44:40;;;;;;;4.40;2.13;;;13.40;1.00;;;;;;5015503;28;20261;-79
2021/05/15 11:47:08;;;;;;;6.20;2.67;;;13.50;1.00;;;;;;5015588;28;20738;-80
2021/05/15 11:49:35;;;;;;;5.47;2.53;;;13.40;1.00;;;;;;5015740;28;20190;-80
2021/05/15 11:52:10;;;;;;;3.87;2.27;;;13.40;1.00;;;;;;5015737;28;20650;-78
2021/05/15 11:54:37;;;;;;;5.67;2.30;;;13.40;1.00;;;;;;5015422;28;20166;-78
2021/05/15 11:57:04;;;;;;;5.00;2.43;;;13.60;1.00;;;;;;5015323;28;20188;-78
2021/05/15 11:59:30;;;;;;;5.37;2.90;;;13.60;1.00;;;;;;5013941;28;20578;-80
2021/05/15 12:01:57;;;;;;;5.33;2.63;;;13.90;1.00;;;;;;5014780;28;20177;-80
2021/05/15 12:04:28;;;;;;;5.53;2.50;;;13.90;1.00;;;;;;5013419;28;20213;-79
2021/05/15 12:06:55;;;;;;;4.17;2.20;;;13.90;1.00;;;;;;5014895;28;20202;-81
2021/05/15 12:09:22;;;;;;;5.77;3.00;;;13.90;1.00;;;;;;5014773;28;20163;-80
2021/05/15 12:11:56;;;;;;;7.43;4.17;;;13.70;1.00;;;;;;5013405;28;20607;-79
2021/05/15 12:14:22;;;;;;;7.33;4.00;;;13.60;1.00;;;;;;5014585;28;20171;-78
2021/05/15 12:16:48;;;;;;;6.47;3.53;;;13.70;1.00;;;;;;5014018;28;20176;-79
2021/05/15 12:19:27;;;;;;;5.73;3.30;;;13.70;1.00;;;;;;5013025;28;20178;-81
2021/05/15 12:21:57;;;;;;;5.13;2.90;;;13.60;1.00;;;;;;5014910;28;20178;-79
2021/05/15 12:24:22;;;;;;;5.83;2.70;;;13.40;1.00;;;;;;5014655;28;20181;-81
2021/05/15 12:26:48;;;;;;;4.90;2.60;;;13.30;1.00;;;;;;5013937;28;20218;-81
2021/05/15 12:29:14;;;;;;;7.63;4.63;;;13.30;1.00;;;;;;5014312;28;20504;-79
2021/05/15 12:31:43;;;;;;;5.40;3.50;;;13.20;5.70;;;;;;5013910;28;20167;-80
2021/05/15 12:34:08;;;;;;;6.17;4.13;;;13.20;15.10;;;;;;5012475;28;20615;-80
2021/05/15 12:36:36;;;;;;;9.43;4.60;;;13.60;22.10;;;;;;5014117;28;20171;-81
2021/05/15 12:39:10;;;;;;;8.23;4.90;;;13.40;24.20;;;;;;5014601;28;20174;-82
2021/05/15 12:41:38;;;;;;;7.10;4.17;;;13.60;22.90;;;;;;5014599;28;20159;-81